createdAt,value
2018-01-17T00:00:54.811Z,1.90
2018-01-17T00:03:22.358Z,2.40
2018-01-17T00:05:49.945Z,1.90
2018-01-17T00:08:17.506Z,2.53
2018-01-17T00:10:45.085Z,2.50
2018-01-17T00:13:12.674Z,2.17
2018-01-17T00:15:40.960Z,3.13
2018-01-17T00:18:08.490Z,2.37
2018-01-17T00:20:36.035Z,2.00
2018-01-17T00:23:03.569Z,2.63
2018-01-17T00:25:31.132Z,3.53
2018-01-17T00:27:58.692Z,5.30
2018-01-17T00:30:26.204Z,2.30
2018-01-17T00:32:53.743Z,4.27
2018-01-17T00:35:21.242Z,2.73
2018-01-17T00:37:49.165Z,2.83
2018-01-17T00:40:16.680Z,2.17
2018-01-17T00:42:44.248Z,2.27
2018-01-17T00:45:11.774Z,2.00
2018-01-17T00:47:40.082Z,2.33
2018-01-17T00:50:07.629Z,2.97
2018-01-17T00:52:35.149Z,2.17
2018-01-17T00:55:03.418Z,1.97
2018-01-17T00:57:30.947Z,2.23
2018-01-17T00:59:58.451Z,2.23
2018-01-17T01:02:25.981Z,2.33
2018-01-17T01:04:53.515Z,2.17
2018-01-17T01:07:21.032Z,2.30
2018-01-17T01:09:49.335Z,2.70
2018-01-17T01:12:16.883Z,2.40
2018-01-17T01:14:45.151Z,2.03
2018-01-17T01:17:12.696Z,2.60
2018-01-17T01:19:41.006Z,2.20
2018-01-17T01:22:08.548Z,4.37
2018-01-17T01:24:36.838Z,3.73
2018-01-17T01:27:04.402Z,3.27
2018-01-17T01:29:31.918Z,1.87
2018-01-17T01:31:59.468Z,3.90
2018-01-17T01:34:27.125Z,1.87
2018-01-17T01:36:54.677Z,3.37
2018-01-17T01:39:22.188Z,1.67
2018-01-17T01:41:49.768Z,3.77
2018-01-17T01:44:17.320Z,1.50
2018-01-17T01:46:44.893Z,2.10
2018-01-17T01:49:12.502Z,2.10
2018-01-17T01:51:40.115Z,1.80
2018-01-17T01:54:07.755Z,2.90
2018-01-17T01:56:35.342Z,4.20
2018-01-17T01:59:02.946Z,2.03
2018-01-17T02:01:30.500Z,1.50
2018-01-17T02:03:58.090Z,1.37
2018-01-17T02:06:26.674Z,1.40
2018-01-17T02:08:54.235Z,1.50
2018-01-17T02:11:22.582Z,1.60
2018-01-17T02:13:50.132Z,1.73
2018-01-17T02:16:17.726Z,2.47
2018-01-17T02:18:45.238Z,2.10
2018-01-17T02:21:12.742Z,1.50
2018-01-17T02:23:41.080Z,1.60
2018-01-17T02:26:08.592Z,3.17
2018-01-17T02:28:36.128Z,1.50
2018-01-17T02:31:03.809Z,1.43
2018-01-17T02:33:32.109Z,1.40
2018-01-17T02:35:59.660Z,1.53
2018-01-17T02:38:27.175Z,2.13
2018-01-17T02:40:54.705Z,1.40
2018-01-17T02:43:22.238Z,1.77
2018-01-17T02:45:49.768Z,1.43
2018-01-17T02:48:18.072Z,3.13
2018-01-17T02:50:45.581Z,1.53
2018-01-17T02:53:13.124Z,1.53
2018-01-17T02:55:40.636Z,1.50
2018-01-17T02:58:08.168Z,1.33
2018-01-17T03:00:35.737Z,1.70
2018-01-17T03:03:04.052Z,1.50
2018-01-17T03:05:31.569Z,1.60
2018-01-17T03:07:59.112Z,2.13
2018-01-17T03:10:26.626Z,1.27
2018-01-17T03:12:54.164Z,1.37
2018-01-17T03:15:21.667Z,1.60
2018-01-17T03:17:49.252Z,1.47
2018-01-17T03:20:16.770Z,1.30
2018-01-17T03:22:44.315Z,1.87
2018-01-17T03:25:11.817Z,1.20
2018-01-17T03:27:39.344Z,1.33
2018-01-17T03:30:06.852Z,1.30
2018-01-17T03:32:34.400Z,1.47
2018-01-17T03:35:02.383Z,1.33
2018-01-17T03:37:29.963Z,1.53
2018-01-17T03:39:57.470Z,1.20
2018-01-17T03:42:25.057Z,1.87
2018-01-17T03:44:52.591Z,2.90
2018-01-17T03:47:20.137Z,1.40
2018-01-17T03:49:47.879Z,1.40
2018-01-17T03:52:15.396Z,1.63
2018-01-17T03:54:42.955Z,2.63
2018-01-17T03:57:10.470Z,1.70
2018-01-17T03:59:38.449Z,1.73
2018-01-17T04:02:05.972Z,1.43
2018-01-17T04:04:33.521Z,1.60
2018-01-17T04:07:01.063Z,2.60
2018-01-17T04:09:28.599Z,2.63
2018-01-17T04:11:56.150Z,3.67
2018-01-17T04:14:23.659Z,1.70
2018-01-17T04:16:51.165Z,1.53
2018-01-17T04:19:18.708Z,1.37
2018-01-17T04:21:46.238Z,1.70
2018-01-17T04:24:13.825Z,3.10
2018-01-17T04:26:41.355Z,2.00
2018-01-17T04:29:09.692Z,1.40
2018-01-17T04:31:37.200Z,2.27
2018-01-17T04:34:05.496Z,1.50
2018-01-17T04:36:33.038Z,1.63
2018-01-17T04:39:01.352Z,2.80
2018-01-17T04:41:28.862Z,2.47
2018-01-17T04:43:57.187Z,1.50
2018-01-17T04:46:24.708Z,3.23
2018-01-17T04:48:53.059Z,3.20
2018-01-17T04:51:20.583Z,4.73
2018-01-17T04:53:48.107Z,2.00
2018-01-17T04:56:15.624Z,2.70
2018-01-17T04:58:43.154Z,3.03
2018-01-17T05:01:10.713Z,1.40
2018-01-17T05:03:38.224Z,1.70
2018-01-17T05:06:05.788Z,1.73
2018-01-17T05:08:33.305Z,1.17
2018-01-17T05:11:00.948Z,1.40
2018-01-17T05:13:28.459Z,1.17
2018-01-17T05:15:55.966Z,1.30
2018-01-17T05:18:23.509Z,2.07
2018-01-17T05:20:51.023Z,1.20
2018-01-17T05:23:18.556Z,1.33
2018-01-17T05:25:46.078Z,1.30
2018-01-17T05:28:13.610Z,1.17
2018-01-17T05:30:41.142Z,1.07
2018-01-17T05:33:08.972Z,1.13
2018-01-17T05:35:43.759Z,1.43
2018-01-17T05:38:11.299Z,1.10
2018-01-17T05:40:38.823Z,3.97
2018-01-17T05:43:06.362Z,1.93
2018-01-17T05:45:34.670Z,1.40
2018-01-17T05:48:02.210Z,1.30
2018-01-17T05:50:30.863Z,1.60
2018-01-17T05:52:58.394Z,1.43
2018-01-17T05:55:25.907Z,1.50
2018-01-17T05:57:53.454Z,1.20
2018-01-17T06:00:21.033Z,1.40
2018-01-17T06:02:48.636Z,1.63
2018-01-17T06:05:16.151Z,2.87
2018-01-17T06:07:43.676Z,1.50
2018-01-17T06:10:11.243Z,2.00
2018-01-17T06:12:38.748Z,1.30
2018-01-17T06:15:06.262Z,1.70
2018-01-17T06:17:33.818Z,1.70
2018-01-17T06:20:01.355Z,1.80
2018-01-17T06:22:28.991Z,1.83
2018-01-17T06:24:56.555Z,1.73
2018-01-17T06:27:24.098Z,1.90
2018-01-17T06:29:51.640Z,2.00
2018-01-17T06:32:19.193Z,1.60
2018-01-17T06:34:46.696Z,3.50
2018-01-17T06:37:14.267Z,4.40
2018-01-17T06:39:41.818Z,1.73
2018-01-17T06:42:09.342Z,1.53
2018-01-17T06:44:37.655Z,4.23
2018-01-17T06:47:05.168Z,1.83
2018-01-17T06:49:33.441Z,3.90
2018-01-17T06:52:00.962Z,5.33
2018-01-17T06:54:28.515Z,1.93
2018-01-17T06:56:56.787Z,2.30
2018-01-17T06:59:24.343Z,5.73
2018-01-17T07:01:51.879Z,1.50
2018-01-17T07:04:19.429Z,1.50
2018-01-17T07:06:46.931Z,3.07
2018-01-17T07:09:14.455Z,1.40
2018-01-17T07:11:42.002Z,1.60
2018-01-17T07:14:09.532Z,1.70
2018-01-17T07:16:37.057Z,1.60
2018-01-17T07:19:04.611Z,2.73
2018-01-17T07:21:32.126Z,1.37
2018-01-17T07:23:59.816Z,3.40
2018-01-17T07:26:27.346Z,2.07
2018-01-17T07:28:55.646Z,3.13
2018-01-17T07:31:24.060Z,1.70
2018-01-17T07:33:51.692Z,2.57
2018-01-17T07:36:19.403Z,2.13
2018-01-17T07:38:46.958Z,1.70
2018-01-17T07:41:14.515Z,1.63
2018-01-17T07:43:42.047Z,1.53
2018-01-17T07:46:09.709Z,3.30
2018-01-17T07:48:37.306Z,4.30
2018-01-17T07:51:04.867Z,6.13
2018-01-17T07:53:32.534Z,1.60
2018-01-17T07:56:00.053Z,1.47
2018-01-17T07:58:27.601Z,2.40
2018-01-17T08:00:55.123Z,3.20
2018-01-17T08:03:22.666Z,2.37
2018-01-17T08:05:50.233Z,5.33
2018-01-17T08:08:17.783Z,1.80
2018-01-17T08:10:45.317Z,1.43
2018-01-17T08:13:12.889Z,1.43
2018-01-17T08:15:41.290Z,1.60
2018-01-17T08:18:08.808Z,1.83
2018-01-17T08:20:36.326Z,1.30
2018-01-17T08:23:04.829Z,4.10
2018-01-17T08:25:32.362Z,1.70
2018-01-17T08:28:00.728Z,1.60
2018-01-17T08:30:28.582Z,2.10
2018-01-17T08:32:56.121Z,1.57
2018-01-17T08:35:23.708Z,2.03
2018-01-17T08:37:51.230Z,1.60
2018-01-17T08:40:18.805Z,2.17
2018-01-17T08:42:46.327Z,1.60
2018-01-17T08:45:13.937Z,1.80
2018-01-17T08:47:41.447Z,2.93
2018-01-17T08:50:08.976Z,1.90
2018-01-17T08:52:36.556Z,1.87
2018-01-17T08:55:04.867Z,2.23
2018-01-17T08:57:32.638Z,1.67
2018-01-17T09:00:00.236Z,2.10
2018-01-17T09:02:27.863Z,1.73
2018-01-17T09:04:55.418Z,3.23
2018-01-17T09:07:23.230Z,1.70
2018-01-17T09:09:50.809Z,3.07
2018-01-17T09:12:18.429Z,1.60
2018-01-17T09:14:45.947Z,2.30
2018-01-17T09:17:13.479Z,1.70
2018-01-17T09:19:41.314Z,4.00
2018-01-17T09:22:08.848Z,3.67
2018-01-17T09:24:36.369Z,3.53
2018-01-17T09:27:04.069Z,1.93
2018-01-17T09:29:32.287Z,2.10
2018-01-17T09:32:00.235Z,2.20
2018-01-17T09:34:27.847Z,1.70
2018-01-17T09:36:55.397Z,3.87
2018-01-17T09:39:22.963Z,1.80
2018-01-17T09:41:50.473Z,1.80
2018-01-17T09:44:18.071Z,3.27
2018-01-17T09:46:46.413Z,4.67
2018-01-17T09:49:13.915Z,1.60
2018-01-17T09:51:41.453Z,1.77
2018-01-17T09:54:09.054Z,1.67
2018-01-17T09:56:36.612Z,1.80
2018-01-17T09:59:04.153Z,2.40
2018-01-17T10:01:31.716Z,2.20
2018-01-17T10:03:59.268Z,2.57
2018-01-17T10:06:26.819Z,2.77
2018-01-17T10:08:54.385Z,1.93
2018-01-17T10:11:22.094Z,2.43
2018-01-17T10:13:49.611Z,6.87
2018-01-17T10:16:17.184Z,4.07
2018-01-17T10:18:44.800Z,4.67
2018-01-17T10:21:12.331Z,3.80
2018-01-17T10:23:39.894Z,5.83
2018-01-17T10:26:07.492Z,2.50
2018-01-17T10:28:35.007Z,3.97
2018-01-17T10:31:02.557Z,2.03
2018-01-17T10:33:30.227Z,3.53
2018-01-17T10:35:57.815Z,1.93
2018-01-17T10:38:25.384Z,2.13
2018-01-17T10:40:52.909Z,1.97
2018-01-17T10:43:20.613Z,2.13
2018-01-17T10:45:48.171Z,2.67
2018-01-17T10:48:15.701Z,2.10
2018-01-17T10:50:43.231Z,1.77
2018-01-17T10:53:10.803Z,2.27
2018-01-17T10:55:38.347Z,2.03
2018-01-17T10:58:05.915Z,2.47
2018-01-17T11:00:39.140Z,1.73
2018-01-17T11:03:06.664Z,2.57
2018-01-17T11:05:34.219Z,1.90
2018-01-17T11:08:01.823Z,1.57
2018-01-17T11:10:29.362Z,1.70
2018-01-17T11:12:57.013Z,2.00
2018-01-17T11:15:24.603Z,2.57
2018-01-17T11:17:52.116Z,1.60
2018-01-17T11:20:19.703Z,3.07
2018-01-17T11:22:47.263Z,3.90
2018-01-17T11:25:14.859Z,2.53
2018-01-17T11:27:42.428Z,1.80
2018-01-17T11:30:10.098Z,3.37
2018-01-17T11:32:38.387Z,1.80
2018-01-17T11:35:05.913Z,2.43
2018-01-17T11:37:33.434Z,6.87
2018-01-17T11:40:00.996Z,2.20
2018-01-17T11:42:28.575Z,3.70
2018-01-17T11:44:56.129Z,3.53
2018-01-17T11:47:23.709Z,1.90
2018-01-17T11:49:51.501Z,3.03
2018-01-17T11:52:19.053Z,4.07
2018-01-17T11:54:47.379Z,3.53
2018-01-17T11:57:14.916Z,1.77
2018-01-17T11:59:42.455Z,3.67
2018-01-17T12:02:10.052Z,2.13
2018-01-17T12:04:37.598Z,2.67
2018-01-17T12:07:05.171Z,2.33
2018-01-17T12:09:32.765Z,1.57
2018-01-17T12:12:00.434Z,2.73
2018-01-17T12:14:28.006Z,2.00
2018-01-17T12:16:55.598Z,2.17
2018-01-17T12:19:23.113Z,1.70
2018-01-17T12:21:50.676Z,2.57
2018-01-17T12:24:18.415Z,3.30
2018-01-17T12:26:45.941Z,2.63
2018-01-17T12:29:13.509Z,1.70
2018-01-17T12:31:41.086Z,2.20
2018-01-17T12:34:08.616Z,4.20
2018-01-17T12:36:36.147Z,2.80
2018-01-17T12:39:03.679Z,6.23
2018-01-17T12:41:31.199Z,7.20
2018-01-17T12:43:58.963Z,5.40
2018-01-17T12:46:26.483Z,5.00
2018-01-17T12:48:54.070Z,5.90
2018-01-17T12:51:21.571Z,6.77
2018-01-17T12:53:49.117Z,2.10
2018-01-17T12:56:16.852Z,6.10
2018-01-17T12:58:44.400Z,2.03
2018-01-17T13:01:11.975Z,5.10
2018-01-17T13:03:39.551Z,3.53
2018-01-17T13:06:07.314Z,2.37
2018-01-17T13:08:34.963Z,4.13
2018-01-17T13:11:02.535Z,3.07
2018-01-17T13:13:30.157Z,2.53
2018-01-17T13:15:57.763Z,2.50
2018-01-17T13:18:25.282Z,3.60
2018-01-17T13:20:53.806Z,8.30
2018-01-17T13:23:21.462Z,10.20
2018-01-17T13:25:49.015Z,6.40
2018-01-17T13:28:16.550Z,9.67
2018-01-17T13:30:44.121Z,5.93
2018-01-17T13:33:12.447Z,4.03
2018-01-17T13:35:40.175Z,6.07
2018-01-17T13:38:07.973Z,3.33
2018-01-17T13:40:35.486Z,6.47
2018-01-17T13:43:03.801Z,7.43
2018-01-17T13:45:31.507Z,6.03
2018-01-17T13:47:59.051Z,8.90
2018-01-17T13:50:26.733Z,4.37
2018-01-17T13:52:54.275Z,6.03
2018-01-17T13:55:21.911Z,6.60
2018-01-17T13:57:49.463Z,9.80
2018-01-17T14:00:17.043Z,5.03
2018-01-17T14:02:44.604Z,3.87
2018-01-17T14:05:12.110Z,3.43
2018-01-17T14:07:39.713Z,2.70
2018-01-17T14:10:07.227Z,6.73
2018-01-17T14:12:34.777Z,8.13
2018-01-17T14:15:02.360Z,8.03
2018-01-17T14:17:29.915Z,5.53
2018-01-17T14:19:57.459Z,7.23
2018-01-17T14:22:24.958Z,7.50
2018-01-17T14:24:52.489Z,2.67
2018-01-17T14:27:20.048Z,4.77
2018-01-17T14:29:47.563Z,7.60
2018-01-17T14:32:15.495Z,5.40
2018-01-17T14:34:43.040Z,6.03
2018-01-17T14:37:10.914Z,5.17
2018-01-17T14:39:38.466Z,7.47
2018-01-17T14:42:06.027Z,4.43
2018-01-17T14:44:33.540Z,4.23
2018-01-17T14:47:01.131Z,8.33
2018-01-17T14:49:28.704Z,6.57
2018-01-17T14:51:56.202Z,5.80
2018-01-17T14:54:23.813Z,2.87
2018-01-17T14:56:52.159Z,4.27
2018-01-17T14:59:19.752Z,5.37
2018-01-17T15:01:47.297Z,5.47
2018-01-17T15:04:14.816Z,5.83
2018-01-17T15:06:42.343Z,8.07
2018-01-17T15:09:09.868Z,7.93
2018-01-17T15:11:37.452Z,3.93
2018-01-17T15:14:04.986Z,7.17
2018-01-17T15:16:32.559Z,7.30
2018-01-17T15:19:00.896Z,9.00
2018-01-17T15:21:28.488Z,9.10
2018-01-17T15:23:56.021Z,4.73
2018-01-17T15:26:23.545Z,7.33
2018-01-17T15:28:51.112Z,3.77
2018-01-17T15:31:18.670Z,3.10
2018-01-17T15:33:46.245Z,3.70
2018-01-17T15:36:14.050Z,3.03
2018-01-17T15:38:41.596Z,8.40
2018-01-17T15:41:09.143Z,7.83
2018-01-17T15:43:36.667Z,5.07
2018-01-17T15:46:04.319Z,6.17
2018-01-17T15:48:31.895Z,6.43
2018-01-17T15:50:59.726Z,6.03
2018-01-17T15:53:28.079Z,7.33
2018-01-17T15:55:55.707Z,8.07
2018-01-17T15:58:23.252Z,7.70
2018-01-17T16:00:50.765Z,9.53
2018-01-17T16:03:18.320Z,6.77
2018-01-17T16:05:45.985Z,5.87
2018-01-17T16:08:13.514Z,7.13
2018-01-17T16:10:41.029Z,9.27
2018-01-17T16:13:08.585Z,7.60
2018-01-17T16:15:36.863Z,9.97
2018-01-17T16:18:04.403Z,8.20
2018-01-17T16:20:32.063Z,7.73
2018-01-17T16:22:59.587Z,7.53
2018-01-17T16:25:27.187Z,12.13
2018-01-17T16:27:54.735Z,7.37
2018-01-17T16:30:22.255Z,11.07
2018-01-17T16:32:49.826Z,5.43
2018-01-17T16:35:17.483Z,6.90
2018-01-17T16:37:45.160Z,4.30
2018-01-17T16:40:12.708Z,6.60
2018-01-17T16:42:40.263Z,7.63
2018-01-17T16:45:07.872Z,7.47
2018-01-17T16:47:35.387Z,5.53
2018-01-17T16:50:02.901Z,10.80
2018-01-17T16:52:32.059Z,8.73
2018-01-17T16:54:59.594Z,8.13
2018-01-17T16:57:27.119Z,7.03
2018-01-17T16:59:55.459Z,7.43
2018-01-17T17:02:23.046Z,10.70
2018-01-17T17:04:50.637Z,9.83
2018-01-17T17:07:18.190Z,6.20
2018-01-17T17:09:46.466Z,9.13
2018-01-17T17:12:14.060Z,8.80
2018-01-17T17:14:41.575Z,7.93
2018-01-17T17:17:09.916Z,5.47
2018-01-17T17:19:37.451Z,7.30
2018-01-17T17:22:05.011Z,13.63
2018-01-17T17:24:32.595Z,7.33
2018-01-17T17:27:00.164Z,6.03
2018-01-17T17:29:27.763Z,5.40
2018-01-17T17:31:55.293Z,10.87
2018-01-17T17:34:22.923Z,8.47
2018-01-17T17:36:50.620Z,10.80
2018-01-17T17:39:18.179Z,8.27
2018-01-17T17:41:45.716Z,12.90
2018-01-17T17:44:13.264Z,11.40
2018-01-17T17:46:40.788Z,8.03
2018-01-17T17:49:08.325Z,8.80
2018-01-17T17:51:36.655Z,8.73
2018-01-17T17:54:04.355Z,6.70
2018-01-17T17:56:31.911Z,7.97
2018-01-17T17:58:59.422Z,8.17
2018-01-17T18:01:26.967Z,11.03
2018-01-17T18:03:54.496Z,10.40
2018-01-17T18:06:22.053Z,10.40
2018-01-17T18:08:49.613Z,6.73
2018-01-17T18:11:17.171Z,12.73
2018-01-17T18:13:44.689Z,10.87
2018-01-17T18:16:12.237Z,13.07
2018-01-17T18:18:39.794Z,9.07
2018-01-17T18:21:07.301Z,6.90
2018-01-17T18:23:34.816Z,11.73
2018-01-17T18:26:02.374Z,7.23
2018-01-17T18:28:29.929Z,9.10
2018-01-17T18:30:57.437Z,9.73
2018-01-17T18:33:24.979Z,6.47
2018-01-17T18:35:52.520Z,15.60
2018-01-17T18:38:20.063Z,11.63
2018-01-17T18:40:47.586Z,8.40
2018-01-17T18:43:15.133Z,9.30
2018-01-17T18:45:42.696Z,13.23
2018-01-17T18:48:10.243Z,10.47
2018-01-17T18:50:37.758Z,9.37
2018-01-17T18:53:05.301Z,9.67
2018-01-17T18:55:33.614Z,7.83
2018-01-17T18:58:01.125Z,11.30
2018-01-17T19:00:29.439Z,8.40
2018-01-17T19:02:56.980Z,7.77
2018-01-17T19:05:24.535Z,10.67
2018-01-17T19:07:52.086Z,10.97
2018-01-17T19:10:20.365Z,8.77
2018-01-17T19:12:47.903Z,10.23
2018-01-17T19:15:15.463Z,10.37
2018-01-17T19:17:43.781Z,6.63
2018-01-17T19:20:11.369Z,12.57
2018-01-17T19:22:38.918Z,14.70
2018-01-17T19:25:06.448Z,9.63
2018-01-17T19:27:34.008Z,12.03
2018-01-17T19:30:02.291Z,15.43
2018-01-17T19:32:29.854Z,14.03
2018-01-17T19:34:57.444Z,10.07
2018-01-17T19:37:25.029Z,9.60
2018-01-17T19:39:52.541Z,13.47
2018-01-17T19:42:20.098Z,13.77
2018-01-17T19:44:47.648Z,9.20
2018-01-17T19:47:15.190Z,9.87
2018-01-17T19:49:43.536Z,13.73
2018-01-17T19:52:11.267Z,9.93
2018-01-17T19:54:38.846Z,12.70
2018-01-17T19:57:06.369Z,8.63
2018-01-17T19:59:33.874Z,10.37
2018-01-17T20:02:01.426Z,8.80
2018-01-17T20:04:28.935Z,13.13
2018-01-17T20:06:57.263Z,10.30
2018-01-17T20:09:24.827Z,12.00
2018-01-17T20:11:52.429Z,9.13
2018-01-17T20:14:20.050Z,13.27
2018-01-17T20:16:47.635Z,16.47
2018-01-17T20:19:15.141Z,16.83
2018-01-17T20:21:42.735Z,15.67
2018-01-17T20:24:10.311Z,14.30
2018-01-17T20:26:37.856Z,13.23
2018-01-17T20:29:05.386Z,11.83
2018-01-17T20:31:33.990Z,9.70
2018-01-17T20:34:01.500Z,8.00
2018-01-17T20:36:29.803Z,14.27
2018-01-17T20:38:57.335Z,11.37
2018-01-17T20:41:25.704Z,11.27
2018-01-17T20:43:54.027Z,18.30
2018-01-17T20:46:21.582Z,12.50
2018-01-17T20:48:49.133Z,10.77
2018-01-17T20:51:16.736Z,15.10
2018-01-17T20:53:44.299Z,9.40
2018-01-17T20:56:11.881Z,8.07
2018-01-17T20:58:39.418Z,8.90
2018-01-17T21:01:06.981Z,9.90
2018-01-17T21:03:34.540Z,8.83
2018-01-17T21:06:02.066Z,12.63
2018-01-17T21:08:29.628Z,11.33
2018-01-17T21:10:57.158Z,19.27
2018-01-17T21:13:24.763Z,12.80
2018-01-17T21:15:52.277Z,12.70
2018-01-17T21:18:19.839Z,10.10
2018-01-17T21:20:47.393Z,8.13
2018-01-17T21:23:14.980Z,10.03
2018-01-17T21:25:42.554Z,12.37
2018-01-17T21:28:10.137Z,7.60
2018-01-17T21:30:37.667Z,11.77
2018-01-17T21:33:05.224Z,8.83
2018-01-17T21:35:32.786Z,11.53
2018-01-17T21:38:00.349Z,9.30
2018-01-17T21:40:27.897Z,11.50
2018-01-17T21:45:58.636Z,9.33
2018-01-17T21:48:26.151Z,6.97
2018-01-17T21:50:53.739Z,7.40
2018-01-17T21:53:21.297Z,8.00
2018-01-17T21:55:49.644Z,6.90
2018-01-17T21:58:17.164Z,9.83
2018-01-17T22:00:44.702Z,8.37
2018-01-17T22:03:12.270Z,8.70
2018-01-17T22:05:39.791Z,9.03
2018-01-17T22:08:07.343Z,11.40
2018-01-17T22:10:34.933Z,9.80
2018-01-17T22:13:02.597Z,14.93
2018-01-17T22:15:30.151Z,11.10
2018-01-17T22:17:57.701Z,8.27
2018-01-17T22:20:26.069Z,10.67
2018-01-17T22:22:53.579Z,8.63
2018-01-17T22:25:21.145Z,11.20
2018-01-17T22:27:48.694Z,14.27
2018-01-17T22:30:16.253Z,8.90
2018-01-17T22:32:43.825Z,7.60
2018-01-17T22:35:11.375Z,9.60
2018-01-17T22:37:38.981Z,7.07
2018-01-17T22:40:06.518Z,9.27
2018-01-17T22:42:34.154Z,10.30
2018-01-17T22:45:01.659Z,7.13
2018-01-17T22:47:29.204Z,12.47
2018-01-17T22:49:56.810Z,6.53
2018-01-17T22:52:25.127Z,6.53
2018-01-17T22:54:52.651Z,7.07
2018-01-17T22:57:20.967Z,7.03
2018-01-17T22:59:48.496Z,5.77
2018-01-17T23:02:16.058Z,8.10
2018-01-17T23:04:43.621Z,8.73
2018-01-17T23:07:11.132Z,12.53
2018-01-17T23:09:38.688Z,8.43
2018-01-17T23:12:06.220Z,6.67
2018-01-17T23:14:33.775Z,6.33
2018-01-17T23:17:01.320Z,7.63
2018-01-17T23:19:28.850Z,10.97
2018-01-17T23:21:56.378Z,7.10
2018-01-17T23:24:23.954Z,5.60
2018-01-17T23:26:51.461Z,5.20
2018-01-17T23:29:19.020Z,4.27
2018-01-17T23:31:46.638Z,6.93
2018-01-17T23:34:14.174Z,4.77
2018-01-17T23:36:41.753Z,4.17
2018-01-17T23:39:09.307Z,3.97
2018-01-17T23:41:36.820Z,4.00
2018-01-17T23:44:04.337Z,2.57
2018-01-17T23:46:31.869Z,2.80
2018-01-17T23:48:59.374Z,5.37
2018-01-17T23:51:26.915Z,2.93
2018-01-17T23:53:54.427Z,2.77
2018-01-17T23:56:21.977Z,2.07
2018-01-17T23:58:49.476Z,2.47
